sensor_id;sensor_type;location;lat;lon;timestamp;P1;durP1;ratioP1;P2;durP2;ratioP2
26437;SDS011;14133;48.430;9.888;2022-07-22T00:01:12;2.42;;;1.02;;
26437;SDS011;14133;48.430;9.888;2022-07-22T00:10:56;2.45;;;1.05;;
26437;SDS011;14133;48.430;9.888;2022-07-22T00:20:36;2.40;;;0.95;;
26437;SDS011;14133;48.430;9.888;2022-07-22T00:30:17;2.45;;;1.05;;
26437;SDS011;14133;48.430;9.888;2022-07-22T00:39:58;2.40;;;1.00;;
26437;SDS011;14133;48.430;9.888;2022-07-22T00:49:38;2.40;;;0.95;;
26437;SDS011;14133;48.430;9.888;2022-07-22T00:59:19;2.40;;;1.02;;
26437;SDS011;14133;48.430;9.888;2022-07-22T01:08:59;2.50;;;1.15;;
26437;SDS011;14133;48.430;9.888;2022-07-22T01:18:40;2.40;;;0.98;;
26437;SDS011;14133;48.430;9.888;2022-07-22T01:28:21;2.45;;;1.00;;
26437;SDS011;14133;48.430;9.888;2022-07-22T01:38:02;2.45;;;1.02;;
26437;SDS011;14133;48.430;9.888;2022-07-22T01:47:42;2.45;;;1.00;;
26437;SDS011;14133;48.430;9.888;2022-07-22T01:57:23;2.42;;;0.98;;
26437;SDS011;14133;48.430;9.888;2022-07-22T02:07:03;2.42;;;1.00;;
26437;SDS011;14133;48.430;9.888;2022-07-22T02:16:43;2.40;;;0.98;;
26437;SDS011;14133;48.430;9.888;2022-07-22T02:26:24;2.47;;;1.10;;
26437;SDS011;14133;48.430;9.888;2022-07-22T02:36:04;2.40;;;0.98;;
26437;SDS011;14133;48.430;9.888;2022-07-22T02:45:45;2.40;;;0.93;;
26437;SDS011;14133;48.430;9.888;2022-07-22T02:55:25;2.40;;;0.93;;
26437;SDS011;14133;48.430;9.888;2022-07-22T03:05:06;2.38;;;0.90;;
26437;SDS011;14133;48.430;9.888;2022-07-22T03:14:47;2.45;;;1.10;;
26437;SDS011;14133;48.430;9.888;2022-07-22T03:24:27;2.45;;;1.02;;
26437;SDS011;14133;48.430;9.888;2022-07-22T03:34:07;2.40;;;0.93;;
26437;SDS011;14133;48.430;9.888;2022-07-22T03:43:48;2.38;;;0.98;;
26437;SDS011;14133;48.430;9.888;2022-07-22T03:53:28;2.40;;;0.90;;
26437;SDS011;14133;48.430;9.888;2022-07-22T04:03:09;2.40;;;0.95;;
26437;SDS011;14133;48.430;9.888;2022-07-22T04:12:49;2.40;;;0.90;;
26437;SDS011;14133;48.430;9.888;2022-07-22T04:22:30;2.40;;;1.00;;
26437;SDS011;14133;48.430;9.888;2022-07-22T04:32:10;2.40;;;0.90;;
26437;SDS011;14133;48.430;9.888;2022-07-22T04:41:50;2.38;;;0.90;;
26437;SDS011;14133;48.430;9.888;2022-07-22T04:51:31;2.40;;;0.93;;
26437;SDS011;14133;48.430;9.888;2022-07-22T05:01:11;2.35;;;0.90;;
26437;SDS011;14133;48.430;9.888;2022-07-22T05:10:52;2.34;;;0.88;;
26437;SDS011;14133;48.430;9.888;2022-07-22T05:20:32;2.40;;;0.98;;
26437;SDS011;14133;48.430;9.888;2022-07-22T05:30:13;2.40;;;0.95;;
26437;SDS011;14133;48.430;9.888;2022-07-22T05:39:53;2.40;;;0.90;;
26437;SDS011;14133;48.430;9.888;2022-07-22T05:49:34;2.40;;;0.90;;
26437;SDS011;14133;48.430;9.888;2022-07-22T05:59:14;2.40;;;0.95;;
26437;SDS011;14133;48.430;9.888;2022-07-22T06:08:56;2.35;;;0.88;;
26437;SDS011;14133;48.430;9.888;2022-07-22T06:18:36;2.35;;;0.90;;
26437;SDS011;14133;48.430;9.888;2022-07-22T06:28:17;2.38;;;0.90;;
26437;SDS011;14133;48.430;9.888;2022-07-22T06:37:57;2.38;;;0.93;;
26437;SDS011;14133;48.430;9.888;2022-07-22T06:47:38;2.40;;;0.98;;
26437;SDS011;14133;48.430;9.888;2022-07-22T06:57:18;2.40;;;1.00;;
26437;SDS011;14133;48.430;9.888;2022-07-22T07:06:59;2.40;;;0.90;;
26437;SDS011;14133;48.430;9.888;2022-07-22T07:16:39;2.38;;;0.90;;
26437;SDS011;14133;48.430;9.888;2022-07-22T07:26:20;2.42;;;1.00;;
26437;SDS011;14133;48.430;9.888;2022-07-22T07:36:00;2.47;;;1.05;;
26437;SDS011;14133;48.430;9.888;2022-07-22T07:45:41;2.40;;;0.95;;
26437;SDS011;14133;48.430;9.888;2022-07-22T07:55:21;2.47;;;1.10;;
26437;SDS011;14133;48.430;9.888;2022-07-22T08:05:02;2.50;;;1.17;;
26437;SDS011;14133;48.430;9.888;2022-07-22T08:14:43;2.45;;;1.10;;
26437;SDS011;14133;48.430;9.888;2022-07-22T08:24:23;2.50;;;1.10;;
26437;SDS011;14133;48.430;9.888;2022-07-22T08:34:04;2.47;;;1.10;;
26437;SDS011;14133;48.430;9.888;2022-07-22T08:43:44;2.50;;;1.13;;
26437;SDS011;14133;48.430;9.888;2022-07-22T08:53:26;2.50;;;1.20;;
26437;SDS011;14133;48.430;9.888;2022-07-22T09:03:17;2.50;;;1.10;;
26437;SDS011;14133;48.430;9.888;2022-07-22T09:13:01;2.50;;;1.20;;
26437;SDS011;14133;48.430;9.888;2022-07-22T09:22:45;2.47;;;1.10;;
26437;SDS011;14133;48.430;9.888;2022-07-22T09:32:27;2.50;;;1.10;;
26437;SDS011;14133;48.430;9.888;2022-07-22T09:42:20;2.50;;;1.17;;
26437;SDS011;14133;48.430;9.888;2022-07-22T09:52:01;2.50;;;1.20;;
26437;SDS011;14133;48.430;9.888;2022-07-22T10:01:42;2.50;;;1.20;;
26437;SDS011;14133;48.430;9.888;2022-07-22T10:11:23;2.50;;;1.17;;
26437;SDS011;14133;48.430;9.888;2022-07-22T10:21:05;2.50;;;1.17;;
26437;SDS011;14133;48.430;9.888;2022-07-22T10:30:49;2.38;;;1.10;;
26437;SDS011;14133;48.430;9.888;2022-07-22T10:40:31;2.50;;;1.17;;
26437;SDS011;14133;48.430;9.888;2022-07-22T11:00:18;2.50;;;1.17;;
26437;SDS011;14133;48.430;9.888;2022-07-22T11:10:14;2.47;;;1.10;;
26437;SDS011;14133;48.430;9.888;2022-07-22T11:19:57;2.50;;;1.17;;
26437;SDS011;14133;48.430;9.888;2022-07-22T11:29:38;2.50;;;1.20;;
26437;SDS011;14133;48.430;9.888;2022-07-22T11:39:23;2.50;;;1.17;;
26437;SDS011;14133;48.430;9.888;2022-07-22T11:49:08;2.45;;;1.10;;
26437;SDS011;14133;48.430;9.888;2022-07-22T11:58:49;2.50;;;1.10;;
26437;SDS011;14133;48.430;9.888;2022-07-22T12:08:34;2.50;;;1.10;;
26437;SDS011;14133;48.430;9.888;2022-07-22T12:18:23;2.42;;;1.15;;
26437;SDS011;14133;48.430;9.888;2022-07-22T12:28:05;2.40;;;1.17;;
26437;SDS011;14133;48.430;9.888;2022-07-22T12:37:45;2.50;;;1.13;;
26437;SDS011;14133;48.430;9.888;2022-07-22T12:57:25;2.50;;;1.13;;
26437;SDS011;14133;48.430;9.888;2022-07-22T13:07:05;2.50;;;1.10;;
26437;SDS011;14133;48.430;9.888;2022-07-22T13:16:46;2.50;;;1.13;;
26437;SDS011;14133;48.430;9.888;2022-07-22T13:26:26;2.45;;;1.15;;
26437;SDS011;14133;48.430;9.888;2022-07-22T13:36:07;2.50;;;1.13;;
26437;SDS011;14133;48.430;9.888;2022-07-22T13:45:47;2.55;;;1.20;;
26437;SDS011;14133;48.430;9.888;2022-07-22T13:55:28;2.55;;;1.23;;
26437;SDS011;14133;48.430;9.888;2022-07-22T14:05:10;2.58;;;1.25;;
26437;SDS011;14133;48.430;9.888;2022-07-22T14:14:51;2.50;;;1.13;;
26437;SDS011;14133;48.430;9.888;2022-07-22T14:24:31;2.50;;;1.20;;
26437;SDS011;14133;48.430;9.888;2022-07-22T14:34:12;2.50;;;1.13;;
26437;SDS011;14133;48.430;9.888;2022-07-22T14:43:52;2.53;;;1.20;;
26437;SDS011;14133;48.430;9.888;2022-07-22T14:53:33;2.53;;;1.20;;
26437;SDS011;14133;48.430;9.888;2022-07-22T15:03:13;2.53;;;1.20;;
26437;SDS011;14133;48.430;9.888;2022-07-22T15:12:54;2.45;;;1.10;;
26437;SDS011;14133;48.430;9.888;2022-07-22T15:22:34;2.50;;;1.10;;
26437;SDS011;14133;48.430;9.888;2022-07-22T15:32:16;2.55;;;1.15;;
26437;SDS011;14133;48.430;9.888;2022-07-22T15:41:57;2.60;;;1.23;;
26437;SDS011;14133;48.430;9.888;2022-07-22T15:51:37;2.55;;;1.23;;
26437;SDS011;14133;48.430;9.888;2022-07-22T16:01:18;2.63;;;1.33;;
26437;SDS011;14133;48.430;9.888;2022-07-22T16:10:58;2.58;;;1.20;;
26437;SDS011;14133;48.430;9.888;2022-07-22T16:20:39;2.55;;;1.23;;
26437;SDS011;14133;48.430;9.888;2022-07-22T16:30:20;2.55;;;1.13;;
26437;SDS011;14133;48.430;9.888;2022-07-22T16:40:01;2.55;;;1.23;;
26437;SDS011;14133;48.430;9.888;2022-07-22T16:49:41;2.55;;;1.13;;
26437;SDS011;14133;48.430;9.888;2022-07-22T16:59:22;2.55;;;1.23;;
26437;SDS011;14133;48.430;9.888;2022-07-22T17:09:02;2.55;;;1.17;;
26437;SDS011;14133;48.430;9.888;2022-07-22T17:18:43;2.60;;;1.23;;
26437;SDS011;14133;48.430;9.888;2022-07-22T17:28:23;2.55;;;1.15;;
26437;SDS011;14133;48.430;9.888;2022-07-22T17:38:04;2.55;;;1.23;;
26437;SDS011;14133;48.430;9.888;2022-07-22T17:47:46;2.50;;;1.17;;
26437;SDS011;14133;48.430;9.888;2022-07-22T17:57:27;2.50;;;1.20;;
26437;SDS011;14133;48.430;9.888;2022-07-22T18:07:07;2.50;;;1.20;;
26437;SDS011;14133;48.430;9.888;2022-07-22T18:16:47;2.50;;;1.20;;
26437;SDS011;14133;48.430;9.888;2022-07-22T18:26:28;2.53;;;1.20;;
26437;SDS011;14133;48.430;9.888;2022-07-22T18:36:09;2.50;;;1.20;;
26437;SDS011;14133;48.430;9.888;2022-07-22T18:45:50;2.50;;;1.20;;
26437;SDS011;14133;48.430;9.888;2022-07-22T18:55:30;2.50;;;1.10;;
26437;SDS011;14133;48.430;9.888;2022-07-22T19:05:11;2.50;;;1.20;;
26437;SDS011;14133;48.430;9.888;2022-07-22T19:14:51;2.50;;;1.20;;
26437;SDS011;14133;48.430;9.888;2022-07-22T19:24:31;2.50;;;1.20;;
26437;SDS011;14133;48.430;9.888;2022-07-22T19:34:15;2.53;;;1.20;;
26437;SDS011;14133;48.430;9.888;2022-07-22T19:43:55;2.50;;;1.20;;
26437;SDS011;14133;48.430;9.888;2022-07-22T19:53:36;2.50;;;1.20;;
26437;SDS011;14133;48.430;9.888;2022-07-22T20:03:17;2.50;;;1.10;;
26437;SDS011;14133;48.430;9.888;2022-07-22T20:12:57;2.50;;;1.20;;
26437;SDS011;14133;48.430;9.888;2022-07-22T20:22:38;2.50;;;1.17;;
26437;SDS011;14133;48.430;9.888;2022-07-22T20:32:27;2.50;;;1.13;;
26437;SDS011;14133;48.430;9.888;2022-07-22T20:42:08;2.50;;;1.20;;
26437;SDS011;14133;48.430;9.888;2022-07-22T20:51:49;2.53;;;1.20;;
26437;SDS011;14133;48.430;9.888;2022-07-22T21:01:30;2.50;;;1.17;;
26437;SDS011;14133;48.430;9.888;2022-07-22T21:11:10;2.50;;;1.17;;
26437;SDS011;14133;48.430;9.888;2022-07-22T21:20:51;2.50;;;1.20;;
26437;SDS011;14133;48.430;9.888;2022-07-22T21:30:31;2.50;;;1.17;;
26437;SDS011;14133;48.430;9.888;2022-07-22T21:40:12;2.50;;;1.13;;
26437;SDS011;14133;48.430;9.888;2022-07-22T21:49:52;2.50;;;1.17;;
26437;SDS011;14133;48.430;9.888;2022-07-22T21:59:32;2.50;;;1.10;;
26437;SDS011;14133;48.430;9.888;2022-07-22T22:09:13;2.47;;;1.15;;
26437;SDS011;14133;48.430;9.888;2022-07-22T22:18:54;2.50;;;1.15;;
26437;SDS011;14133;48.430;9.888;2022-07-22T22:28:35;2.50;;;1.10;;
26437;SDS011;14133;48.430;9.888;2022-07-22T22:38:15;2.50;;;1.20;;
26437;SDS011;14133;48.430;9.888;2022-07-22T22:47:56;2.47;;;1.10;;
26437;SDS011;14133;48.430;9.888;2022-07-22T22:57:36;2.50;;;1.10;;
26437;SDS011;14133;48.430;9.888;2022-07-22T23:07:17;2.50;;;1.10;;
26437;SDS011;14133;48.430;9.888;2022-07-22T23:16:57;2.50;;;1.10;;
26437;SDS011;14133;48.430;9.888;2022-07-22T23:26:37;2.47;;;1.15;;
26437;SDS011;14133;48.430;9.888;2022-07-22T23:36:18;2.60;;;1.42;;
26437;SDS011;14133;48.430;9.888;2022-07-22T23:45:58;2.50;;;1.17;;
26437;SDS011;14133;48.430;9.888;2022-07-22T23:55:39;2.50;;;1.20;;
